sensor_id;sensor_type;location;lat;lon;timestamp;P1;P2;P0
32503;PMS5003;18953;45.930;13.640;2024-01-11T00:01:25;20;17;
32503;PMS5003;18953;45.930;13.640;2024-01-11T00:06:41;33;25;
32503;PMS5003;18953;45.930;13.640;2024-01-11T00:11:57;18;15;
32503;PMS5003;18953;45.930;13.640;2024-01-11T00:17:14;25;22;
32503;PMS5003;18953;45.930;13.640;2024-01-11T00:22:30;19;18;
32503;PMS5003;18953;45.930;13.640;2024-01-11T00:27:47;18;15;
32503;PMS5003;18953;45.930;13.640;2024-01-11T00:33:03;22;19;
32503;PMS5003;18953;45.930;13.640;2024-01-11T00:38:20;23;20;
32503;PMS5003;18953;45.930;13.640;2024-01-11T00:43:36;24;23;
32503;PMS5003;18953;45.930;13.640;2024-01-11T00:48:53;30;25;
32503;PMS5003;18953;45.930;13.640;2024-01-11T00:54:09;25;19;
32503;PMS5003;18953;45.930;13.640;2024-01-11T00:59:25;24;22;
32503;PMS5003;18953;45.930;13.640;2024-01-11T01:04:42;26;20;
32503;PMS5003;18953;45.930;13.640;2024-01-11T01:09:58;21;19;
32503;PMS5003;18953;45.930;13.640;2024-01-11T01:15:15;22;18;
32503;PMS5003;18953;45.930;13.640;2024-01-11T01:20:31;18;15;
32503;PMS5003;18953;45.930;13.640;2024-01-11T01:25:48;21;19;
32503;PMS5003;18953;45.930;13.640;2024-01-11T01:31:04;19;19;
32503;PMS5003;18953;45.930;13.640;2024-01-11T01:36:21;16;14;
32503;PMS5003;18953;45.930;13.640;2024-01-11T01:41:37;24;22;
32503;PMS5003;18953;45.930;13.640;2024-01-11T01:46:53;19;17;
32503;PMS5003;18953;45.930;13.640;2024-01-11T01:52:10;20;16;
32503;PMS5003;18953;45.930;13.640;2024-01-11T01:57:26;29;24;
32503;PMS5003;18953;45.930;13.640;2024-01-11T02:02:43;31;25;
32503;PMS5003;18953;45.930;13.640;2024-01-11T02:07:59;23;21;
32503;PMS5003;18953;45.930;13.640;2024-01-11T02:13:15;23;17;
32503;PMS5003;18953;45.930;13.640;2024-01-11T02:18:32;29;20;
32503;PMS5003;18953;45.930;13.640;2024-01-11T02:23:54;28;26;
32503;PMS5003;18953;45.930;13.640;2024-01-11T02:29:05;25;20;
32503;PMS5003;18953;45.930;13.640;2024-01-11T02:34:21;18;16;
32503;PMS5003;18953;45.930;13.640;2024-01-11T02:39:37;22;21;
32503;PMS5003;18953;45.930;13.640;2024-01-11T02:44:54;23;21;
32503;PMS5003;18953;45.930;13.640;2024-01-11T02:50:10;24;21;
32503;PMS5003;18953;45.930;13.640;2024-01-11T02:55:27;27;23;
32503;PMS5003;18953;45.930;13.640;2024-01-11T03:00:43;28;26;
32503;PMS5003;18953;45.930;13.640;2024-01-11T03:05:59;28;24;
32503;PMS5003;18953;45.930;13.640;2024-01-11T03:11:16;17;16;
32503;PMS5003;18953;45.930;13.640;2024-01-11T03:16:32;20;19;
32503;PMS5003;18953;45.930;13.640;2024-01-11T03:21:48;25;21;
32503;PMS5003;18953;45.930;13.640;2024-01-11T03:27:05;19;17;
32503;PMS5003;18953;45.930;13.640;2024-01-11T03:32:21;22;18;
32503;PMS5003;18953;45.930;13.640;2024-01-11T03:37:37;18;16;
32503;PMS5003;18953;45.930;13.640;2024-01-11T03:42:54;18;16;
32503;PMS5003;18953;45.930;13.640;2024-01-11T03:48:10;14;12;
32503;PMS5003;18953;45.930;13.640;2024-01-11T03:53:27;20;16;
32503;PMS5003;18953;45.930;13.640;2024-01-11T03:58:43;20;16;
32503;PMS5003;18953;45.930;13.640;2024-01-11T04:03:59;19;18;
32503;PMS5003;18953;45.930;13.640;2024-01-11T04:09:16;19;18;
32503;PMS5003;18953;45.930;13.640;2024-01-11T04:14:32;24;20;
32503;PMS5003;18953;45.930;13.640;2024-01-11T04:19:48;21;15;
32503;PMS5003;18953;45.930;13.640;2024-01-11T04:25:05;19;17;
32503;PMS5003;18953;45.930;13.640;2024-01-11T04:30:21;17;14;
32503;PMS5003;18953;45.930;13.640;2024-01-11T04:35:38;21;19;
32503;PMS5003;18953;45.930;13.640;2024-01-11T04:40:54;15;15;
32503;PMS5003;18953;45.930;13.640;2024-01-11T04:46:14;18;17;
32503;PMS5003;18953;45.930;13.640;2024-01-11T04:51:27;17;15;
32503;PMS5003;18953;45.930;13.640;2024-01-11T04:56:43;20;16;
32503;PMS5003;18953;45.930;13.640;2024-01-11T05:01:59;18;16;
32503;PMS5003;18953;45.930;13.640;2024-01-11T05:07:16;22;19;
32503;PMS5003;18953;45.930;13.640;2024-01-11T05:12:33;32;29;
32503;PMS5003;18953;45.930;13.640;2024-01-11T05:17:49;60;52;
32503;PMS5003;18953;45.930;13.640;2024-01-11T05:23:05;31;29;
32503;PMS5003;18953;45.930;13.640;2024-01-11T05:28:22;39;35;
32503;PMS5003;18953;45.930;13.640;2024-01-11T05:33:38;35;31;
32503;PMS5003;18953;45.930;13.640;2024-01-11T05:38:55;32;23;
32503;PMS5003;18953;45.930;13.640;2024-01-11T05:44:11;29;24;
32503;PMS5003;18953;45.930;13.640;2024-01-11T05:49:27;30;28;
32503;PMS5003;18953;45.930;13.640;2024-01-11T05:54:44;30;27;
32503;PMS5003;18953;45.930;13.640;2024-01-11T06:00:00;31;28;
32503;PMS5003;18953;45.930;13.640;2024-01-11T06:05:17;28;24;
32503;PMS5003;18953;45.930;13.640;2024-01-11T06:10:33;38;33;
32503;PMS5003;18953;45.930;13.640;2024-01-11T06:15:49;23;22;
32503;PMS5003;18953;45.930;13.640;2024-01-11T06:21:06;24;22;
32503;PMS5003;18953;45.930;13.640;2024-01-11T06:26:22;35;31;
32503;PMS5003;18953;45.930;13.640;2024-01-11T06:31:38;81;64;
32503;PMS5003;18953;45.930;13.640;2024-01-11T06:36:55;55;49;
32503;PMS5003;18953;45.930;13.640;2024-01-11T06:42:11;51;44;
32503;PMS5003;18953;45.930;13.640;2024-01-11T06:47:27;42;36;
32503;PMS5003;18953;45.930;13.640;2024-01-11T06:52:44;43;38;
32503;PMS5003;18953;45.930;13.640;2024-01-11T06:58:00;43;39;
32503;PMS5003;18953;45.930;13.640;2024-01-11T07:03:17;55;47;
32503;PMS5003;18953;45.930;13.640;2024-01-11T07:08:33;56;50;
32503;PMS5003;18953;45.930;13.640;2024-01-11T07:13:50;60;51;
32503;PMS5003;18953;45.930;13.640;2024-01-11T07:19:06;59;51;
32503;PMS5003;18953;45.930;13.640;2024-01-11T07:24:23;54;44;
32503;PMS5003;18953;45.930;13.640;2024-01-11T07:29:40;37;36;
32503;PMS5003;18953;45.930;13.640;2024-01-11T07:34:56;57;48;
32503;PMS5003;18953;45.930;13.640;2024-01-11T07:40:13;78;62;
32503;PMS5003;18953;45.930;13.640;2024-01-11T07:45:29;49;45;
32503;PMS5003;18953;45.930;13.640;2024-01-11T07:50:47;58;49;
32503;PMS5003;18953;45.930;13.640;2024-01-11T07:56:03;72;57;
32503;PMS5003;18953;45.930;13.640;2024-01-11T08:01:19;64;52;
32503;PMS5003;18953;45.930;13.640;2024-01-11T08:06:35;55;48;
32503;PMS5003;18953;45.930;13.640;2024-01-11T08:11:52;73;58;
32503;PMS5003;18953;45.930;13.640;2024-01-11T08:17:09;66;54;
32503;PMS5003;18953;45.930;13.640;2024-01-11T08:22:25;77;62;
32503;PMS5003;18953;45.930;13.640;2024-01-11T08:27:41;77;59;
32503;PMS5003;18953;45.930;13.640;2024-01-11T08:32:58;69;54;
32503;PMS5003;18953;45.930;13.640;2024-01-11T08:38:15;67;54;
32503;PMS5003;18953;45.930;13.640;2024-01-11T08:43:31;59;48;
32503;PMS5003;18953;45.930;13.640;2024-01-11T08:48:48;78;60;
32503;PMS5003;18953;45.930;13.640;2024-01-11T08:54:05;83;64;
32503;PMS5003;18953;45.930;13.640;2024-01-11T08:59:21;84;65;
32503;PMS5003;18953;45.930;13.640;2024-01-11T09:04:38;86;66;
32503;PMS5003;18953;45.930;13.640;2024-01-11T09:09:55;80;62;
32503;PMS5003;18953;45.930;13.640;2024-01-11T09:15:12;87;67;
32503;PMS5003;18953;45.930;13.640;2024-01-11T09:20:29;160;143;
32503;PMS5003;18953;45.930;13.640;2024-01-11T09:25:46;77;58;
32503;PMS5003;18953;45.930;13.640;2024-01-11T09:31:03;78;59;
32503;PMS5003;18953;45.930;13.640;2024-01-11T09:36:19;68;52;
32503;PMS5003;18953;45.930;13.640;2024-01-11T09:41:35;64;49;
32503;PMS5003;18953;45.930;13.640;2024-01-11T09:46:52;61;49;
32503;PMS5003;18953;45.930;13.640;2024-01-11T09:52:08;57;47;
32503;PMS5003;18953;45.930;13.640;2024-01-11T09:57:26;52;40;
32503;PMS5003;18953;45.930;13.640;2024-01-11T10:02:42;50;39;
32503;PMS5003;18953;45.930;13.640;2024-01-11T10:07:58;41;37;
32503;PMS5003;18953;45.930;13.640;2024-01-11T10:13:15;51;42;
32503;PMS5003;18953;45.930;13.640;2024-01-11T10:18:32;45;36;
32503;PMS5003;18953;45.930;13.640;2024-01-11T10:23:48;45;37;
32503;PMS5003;18953;45.930;13.640;2024-01-11T10:29:04;42;36;
32503;PMS5003;18953;45.930;13.640;2024-01-11T10:34:21;28;27;
32503;PMS5003;18953;45.930;13.640;2024-01-11T10:39:37;35;28;
32503;PMS5003;18953;45.930;13.640;2024-01-11T10:44:54;28;26;
32503;PMS5003;18953;45.930;13.640;2024-01-11T10:50:09;23;23;
32503;PMS5003;18953;45.930;13.640;2024-01-11T10:55:26;23;22;
32503;PMS5003;18953;45.930;13.640;2024-01-11T11:00:42;22;22;
32503;PMS5003;18953;45.930;13.640;2024-01-11T11:05:58;23;19;
32503;PMS5003;18953;45.930;13.640;2024-01-11T11:11:14;22;19;
32503;PMS5003;18953;45.930;13.640;2024-01-11T11:16:31;18;16;
32503;PMS5003;18953;45.930;13.640;2024-01-11T11:21:47;18;18;
32503;PMS5003;18953;45.930;13.640;2024-01-11T11:27:03;16;15;
32503;PMS5003;18953;45.930;13.640;2024-01-11T11:32:23;18;15;
32503;PMS5003;18953;45.930;13.640;2024-01-11T11:37:36;19;17;
32503;PMS5003;18953;45.930;13.640;2024-01-11T11:42:52;18;15;
32503;PMS5003;18953;45.930;13.640;2024-01-11T11:49:11;20;16;
32503;PMS5003;18953;45.930;13.640;2024-01-11T11:53:25;19;16;
32503;PMS5003;18953;45.930;13.640;2024-01-11T11:58:41;15;12;
32503;PMS5003;18953;45.930;13.640;2024-01-11T12:03:57;15;13;
32503;PMS5003;18953;45.930;13.640;2024-01-11T12:09:14;17;16;
32503;PMS5003;18953;45.930;13.640;2024-01-11T12:14:30;16;15;
32503;PMS5003;18953;45.930;13.640;2024-01-11T12:19:46;15;15;
32503;PMS5003;18953;45.930;13.640;2024-01-11T12:25:03;17;15;
32503;PMS5003;18953;45.930;13.640;2024-01-11T12:30:19;17;15;
32503;PMS5003;18953;45.930;13.640;2024-01-11T12:35:35;24;22;
32503;PMS5003;18953;45.930;13.640;2024-01-11T12:40:51;11;10;
32503;PMS5003;18953;45.930;13.640;2024-01-11T12:46:08;10;10;
32503;PMS5003;18953;45.930;13.640;2024-01-11T12:51:25;10;9;
32503;PMS5003;18953;45.930;13.640;2024-01-11T12:56:40;19;17;
32503;PMS5003;18953;45.930;13.640;2024-01-11T13:01:56;24;20;
32503;PMS5003;18953;45.930;13.640;2024-01-11T13:07:13;11;9;
32503;PMS5003;18953;45.930;13.640;2024-01-11T13:12:29;16;14;
32503;PMS5003;18953;45.930;13.640;2024-01-11T13:17:45;13;10;
32503;PMS5003;18953;45.930;13.640;2024-01-11T13:23:17;15;14;
32503;PMS5003;18953;45.930;13.640;2024-01-11T13:28:18;9;7;
32503;PMS5003;18953;45.930;13.640;2024-01-11T13:33:34;12;10;
32503;PMS5003;18953;45.930;13.640;2024-01-11T13:38:50;12;9;
32503;PMS5003;18953;45.930;13.640;2024-01-11T13:44:07;9;8;
32503;PMS5003;18953;45.930;13.640;2024-01-11T13:49:23;9;8;
32503;PMS5003;18953;45.930;13.640;2024-01-11T13:54:39;8;7;
32503;PMS5003;18953;45.930;13.640;2024-01-11T13:59:56;10;9;
32503;PMS5003;18953;45.930;13.640;2024-01-11T14:05:12;10;9;
32503;PMS5003;18953;45.930;13.640;2024-01-11T14:10:28;16;14;
32503;PMS5003;18953;45.930;13.640;2024-01-11T14:15:44;14;13;
32503;PMS5003;18953;45.930;13.640;2024-01-11T14:21:01;16;16;
32503;PMS5003;18953;45.930;13.640;2024-01-11T14:26:17;20;15;
32503;PMS5003;18953;45.930;13.640;2024-01-11T14:31:33;16;14;
32503;PMS5003;18953;45.930;13.640;2024-01-11T14:36:50;14;12;
32503;PMS5003;18953;45.930;13.640;2024-01-11T14:42:06;11;11;
32503;PMS5003;18953;45.930;13.640;2024-01-11T14:47:22;17;15;
32503;PMS5003;18953;45.930;13.640;2024-01-11T14:52:39;24;21;
32503;PMS5003;18953;45.930;13.640;2024-01-11T14:57:55;23;21;
32503;PMS5003;18953;45.930;13.640;2024-01-11T15:03:11;27;27;
32503;PMS5003;18953;45.930;13.640;2024-01-11T15:08:27;22;20;
32503;PMS5003;18953;45.930;13.640;2024-01-11T15:13:44;21;19;
32503;PMS5003;18953;45.930;13.640;2024-01-11T15:19:00;22;22;
32503;PMS5003;18953;45.930;13.640;2024-01-11T15:24:16;29;23;
32503;PMS5003;18953;45.930;13.640;2024-01-11T15:29:33;28;27;
32503;PMS5003;18953;45.930;13.640;2024-01-11T15:34:49;40;37;
32503;PMS5003;18953;45.930;13.640;2024-01-11T15:40:06;43;38;
32503;PMS5003;18953;45.930;13.640;2024-01-11T15:45:22;42;37;
32503;PMS5003;18953;45.930;13.640;2024-01-11T15:50:38;51;44;
32503;PMS5003;18953;45.930;13.640;2024-01-11T15:55:55;42;37;
32503;PMS5003;18953;45.930;13.640;2024-01-11T16:01:11;48;42;
32503;PMS5003;18953;45.930;13.640;2024-01-11T16:06:27;63;52;
32503;PMS5003;18953;45.930;13.640;2024-01-11T16:11:44;59;48;
32503;PMS5003;18953;45.930;13.640;2024-01-11T16:17:00;76;60;
32503;PMS5003;18953;45.930;13.640;2024-01-11T16:22:16;68;55;
32503;PMS5003;18953;45.930;13.640;2024-01-11T16:27:33;56;45;
32503;PMS5003;18953;45.930;13.640;2024-01-11T16:32:50;66;53;
32503;PMS5003;18953;45.930;13.640;2024-01-11T16:38:07;64;52;
32503;PMS5003;18953;45.930;13.640;2024-01-11T16:43:23;47;42;
32503;PMS5003;18953;45.930;13.640;2024-01-11T16:48:40;53;44;
32503;PMS5003;18953;45.930;13.640;2024-01-11T16:53:56;69;53;
32503;PMS5003;18953;45.930;13.640;2024-01-11T16:59:13;59;49;
32503;PMS5003;18953;45.930;13.640;2024-01-11T17:04:30;67;55;
32503;PMS5003;18953;45.930;13.640;2024-01-11T17:09:46;74;58;
32503;PMS5003;18953;45.930;13.640;2024-01-11T17:15:02;75;58;
32503;PMS5003;18953;45.930;13.640;2024-01-11T17:20:19;70;55;
32503;PMS5003;18953;45.930;13.640;2024-01-11T17:25:36;47;44;
32503;PMS5003;18953;45.930;13.640;2024-01-11T17:30:53;98;73;
32503;PMS5003;18953;45.930;13.640;2024-01-11T17:36:11;76;61;
32503;PMS5003;18953;45.930;13.640;2024-01-11T17:41:25;70;53;
32503;PMS5003;18953;45.930;13.640;2024-01-11T17:46:42;66;53;
32503;PMS5003;18953;45.930;13.640;2024-01-11T17:51:59;58;49;
32503;PMS5003;18953;45.930;13.640;2024-01-11T17:57:16;47;41;
32503;PMS5003;18953;45.930;13.640;2024-01-11T18:02:32;43;39;
32503;PMS5003;18953;45.930;13.640;2024-01-11T18:07:49;46;38;
32503;PMS5003;18953;45.930;13.640;2024-01-11T18:13:05;55;48;
32503;PMS5003;18953;45.930;13.640;2024-01-11T18:18:21;53;46;
32503;PMS5003;18953;45.930;13.640;2024-01-11T18:23:38;72;59;
32503;PMS5003;18953;45.930;13.640;2024-01-11T18:28:54;48;44;
32503;PMS5003;18953;45.930;13.640;2024-01-11T18:34:11;51;45;
32503;PMS5003;18953;45.930;13.640;2024-01-11T18:39:27;41;36;
32503;PMS5003;18953;45.930;13.640;2024-01-11T18:44:43;54;48;
32503;PMS5003;18953;45.930;13.640;2024-01-11T18:50:00;51;46;
32503;PMS5003;18953;45.930;13.640;2024-01-11T18:55:16;56;48;
32503;PMS5003;18953;45.930;13.640;2024-01-11T19:00:33;55;48;
32503;PMS5003;18953;45.930;13.640;2024-01-11T19:05:49;49;42;
32503;PMS5003;18953;45.930;13.640;2024-01-11T19:11:06;41;38;
32503;PMS5003;18953;45.930;13.640;2024-01-11T19:16:22;56;47;
32503;PMS5003;18953;45.930;13.640;2024-01-11T19:21:38;42;40;
32503;PMS5003;18953;45.930;13.640;2024-01-11T19:26:56;73;58;
32503;PMS5003;18953;45.930;13.640;2024-01-11T19:32:12;44;41;
32503;PMS5003;18953;45.930;13.640;2024-01-11T19:37:29;52;46;
32503;PMS5003;18953;45.930;13.640;2024-01-11T19:42:45;71;57;
32503;PMS5003;18953;45.930;13.640;2024-01-11T19:48:03;42;39;
32503;PMS5003;18953;45.930;13.640;2024-01-11T19:53:19;82;63;
32503;PMS5003;18953;45.930;13.640;2024-01-11T19:58:36;56;50;
32503;PMS5003;18953;45.930;13.640;2024-01-11T20:03:53;70;54;
32503;PMS5003;18953;45.930;13.640;2024-01-11T20:09:09;37;34;
32503;PMS5003;18953;45.930;13.640;2024-01-11T20:14:25;56;47;
32503;PMS5003;18953;45.930;13.640;2024-01-11T20:19:42;57;49;
32503;PMS5003;18953;45.930;13.640;2024-01-11T20:24:58;43;40;
32503;PMS5003;18953;45.930;13.640;2024-01-11T20:30:16;74;60;
32503;PMS5003;18953;45.930;13.640;2024-01-11T20:35:33;72;58;
32503;PMS5003;18953;45.930;13.640;2024-01-11T20:40:50;68;55;
32503;PMS5003;18953;45.930;13.640;2024-01-11T20:46:06;58;47;
32503;PMS5003;18953;45.930;13.640;2024-01-11T20:51:22;46;36;
32503;PMS5003;18953;45.930;13.640;2024-01-11T20:56:40;47;39;
32503;PMS5003;18953;45.930;13.640;2024-01-11T21:01:55;70;57;
32503;PMS5003;18953;45.930;13.640;2024-01-11T21:07:11;67;54;
32503;PMS5003;18953;45.930;13.640;2024-01-11T21:12:28;57;49;
32503;PMS5003;18953;45.930;13.640;2024-01-11T21:17:44;29;24;
32503;PMS5003;18953;45.930;13.640;2024-01-11T21:23:01;21;20;
32503;PMS5003;18953;45.930;13.640;2024-01-11T21:28:17;38;30;
32503;PMS5003;18953;45.930;13.640;2024-01-11T21:33:33;79;63;
32503;PMS5003;18953;45.930;13.640;2024-01-11T21:38:50;79;63;
32503;PMS5003;18953;45.930;13.640;2024-01-11T21:44:07;68;56;
32503;PMS5003;18953;45.930;13.640;2024-01-11T21:49:23;60;49;
32503;PMS5003;18953;45.930;13.640;2024-01-11T21:54:40;61;50;
32503;PMS5003;18953;45.930;13.640;2024-01-11T21:59:56;40;36;
32503;PMS5003;18953;45.930;13.640;2024-01-11T22:05:13;83;64;
32503;PMS5003;18953;45.930;13.640;2024-01-11T22:10:29;121;104;
32503;PMS5003;18953;45.930;13.640;2024-01-11T22:15:45;76;63;
32503;PMS5003;18953;45.930;13.640;2024-01-11T22:21:02;53;46;
32503;PMS5003;18953;45.930;13.640;2024-01-11T22:26:18;70;59;
32503;PMS5003;18953;45.930;13.640;2024-01-11T22:31:35;55;44;
32503;PMS5003;18953;45.930;13.640;2024-01-11T22:36:51;47;40;
32503;PMS5003;18953;45.930;13.640;2024-01-11T22:42:07;42;39;
32503;PMS5003;18953;45.930;13.640;2024-01-11T22:47:24;49;45;
32503;PMS5003;18953;45.930;13.640;2024-01-11T22:52:40;40;33;
32503;PMS5003;18953;45.930;13.640;2024-01-11T22:57:57;32;30;
32503;PMS5003;18953;45.930;13.640;2024-01-11T23:03:13;32;28;
32503;PMS5003;18953;45.930;13.640;2024-01-11T23:08:29;30;26;
32503;PMS5003;18953;45.930;13.640;2024-01-11T23:13:46;27;26;
32503;PMS5003;18953;45.930;13.640;2024-01-11T23:19:02;36;28;
32503;PMS5003;18953;45.930;13.640;2024-01-11T23:24:19;30;26;
32503;PMS5003;18953;45.930;13.640;2024-01-11T23:29:35;30;25;
32503;PMS5003;18953;45.930;13.640;2024-01-11T23:34:51;27;24;
32503;PMS5003;18953;45.930;13.640;2024-01-11T23:40:08;26;23;
32503;PMS5003;18953;45.930;13.640;2024-01-11T23:45:24;28;24;
32503;PMS5003;18953;45.930;13.640;2024-01-11T23:50:41;28;26;
32503;PMS5003;18953;45.930;13.640;2024-01-11T23:55:57;27;24;
